sensor_id;sensor_type;location;lat;lon;timestamp;pressure;altitude;pressure_sealevel;temperature;humidity
58367;BME280;57745;42.524;12.052;2022-07-23T00:00:17;97040.16;;;31.19;38.67
58367;BME280;57745;42.524;12.052;2022-07-23T00:02:43;97039.06;;;31.22;38.82
58367;BME280;57745;42.524;12.052;2022-07-23T00:05:09;97048.03;;;31.20;39.04
58367;BME280;57745;42.524;12.052;2022-07-23T00:07:35;97043.22;;;31.28;38.92
58367;BME280;57745;42.524;12.052;2022-07-23T00:10:00;97041.69;;;31.20;38.24
58367;BME280;57745;42.524;12.052;2022-07-23T00:12:26;97036.25;;;31.14;38.35
58367;BME280;57745;42.524;12.052;2022-07-23T00:14:52;97030.44;;;31.12;38.30
58367;BME280;57745;42.524;12.052;2022-07-23T00:17:17;97033.47;;;31.22;38.37
58367;BME280;57745;42.524;12.052;2022-07-23T00:19:43;97035.94;;;31.25;38.66
58367;BME280;57745;42.524;12.052;2022-07-23T00:22:08;97033.44;;;31.14;38.70
58367;BME280;57745;42.524;12.052;2022-07-23T00:24:34;97030.53;;;31.27;38.01
58367;BME280;57745;42.524;12.052;2022-07-23T00:27:00;97031.56;;;31.17;38.08
58367;BME280;57745;42.524;12.052;2022-07-23T00:29:25;97037.97;;;31.25;38.30
58367;BME280;57745;42.524;12.052;2022-07-23T00:31:51;97037.56;;;31.21;38.42
58367;BME280;57745;42.524;12.052;2022-07-23T00:34:16;97040.63;;;31.30;38.07
58367;BME280;57745;42.524;12.052;2022-07-23T00:36:41;97029.56;;;31.25;38.17
58367;BME280;57745;42.524;12.052;2022-07-23T00:39:07;97027.13;;;31.21;37.86
58367;BME280;57745;42.524;12.052;2022-07-23T00:41:32;97030.66;;;31.22;38.54
58367;BME280;57745;42.524;12.052;2022-07-23T00:44:21;97027.88;;;31.22;38.30
58367;BME280;57745;42.524;12.052;2022-07-23T00:46:49;97021.84;;;31.18;38.64
58367;BME280;57745;42.524;12.052;2022-07-23T00:49:15;97020.53;;;31.11;38.81
58367;BME280;57745;42.524;12.052;2022-07-23T00:51:41;97028.59;;;31.15;39.03
58367;BME280;57745;42.524;12.052;2022-07-23T00:54:07;97020.22;;;31.22;38.54
58367;BME280;57745;42.524;12.052;2022-07-23T00:56:32;97014.19;;;31.18;38.67
58367;BME280;57745;42.524;12.052;2022-07-23T00:59:00;97014.56;;;31.15;38.58
58367;BME280;57745;42.524;12.052;2022-07-23T01:01:25;97020.06;;;31.28;38.97
58367;BME280;57745;42.524;12.052;2022-07-23T01:03:51;97011.81;;;31.22;38.78
58367;BME280;57745;42.524;12.052;2022-07-23T01:06:16;97013.66;;;31.20;38.96
58367;BME280;57745;42.524;12.052;2022-07-23T01:08:42;97004.88;;;31.16;39.52
58367;BME280;57745;42.524;12.052;2022-07-23T01:11:08;97007.47;;;31.14;38.87
58367;BME280;57745;42.524;12.052;2022-07-23T01:13:33;97001.31;;;31.15;38.57
58367;BME280;57745;42.524;12.052;2022-07-23T01:15:59;97008.03;;;31.12;38.87
58367;BME280;57745;42.524;12.052;2022-07-23T01:18:25;97011.41;;;31.18;38.63
58367;BME280;57745;42.524;12.052;2022-07-23T01:20:50;97016.47;;;31.20;39.07
58367;BME280;57745;42.524;12.052;2022-07-23T01:23:15;97008.03;;;31.12;38.78
58367;BME280;57745;42.524;12.052;2022-07-23T01:25:57;97004.19;;;31.02;39.32
58367;BME280;57745;42.524;12.052;2022-07-23T01:28:22;97011.56;;;31.13;39.62
58367;BME280;57745;42.524;12.052;2022-07-23T01:30:48;97001.22;;;31.07;39.28
58367;BME280;57745;42.524;12.052;2022-07-23T01:33:14;97009.44;;;31.05;40.00
58367;BME280;57745;42.524;12.052;2022-07-23T01:35:39;97012.66;;;31.10;39.65
58367;BME280;57745;42.524;12.052;2022-07-23T01:38:05;96995.72;;;31.15;39.41
58367;BME280;57745;42.524;12.052;2022-07-23T01:40:31;97006.94;;;31.15;39.22
58367;BME280;57745;42.524;12.052;2022-07-23T01:42:56;97004.88;;;31.16;39.34
58367;BME280;57745;42.524;12.052;2022-07-23T01:45:21;96999.06;;;31.14;39.21
58367;BME280;57745;42.524;12.052;2022-07-23T01:47:48;96999.84;;;31.22;39.37
58367;BME280;57745;42.524;12.052;2022-07-23T01:50:14;96993.66;;;31.16;39.21
58367;BME280;57745;42.524;12.052;2022-07-23T01:52:39;97000.47;;;31.28;38.93
58367;BME280;57745;42.524;12.052;2022-07-23T01:55:05;96995.34;;;31.19;39.12
58367;BME280;57745;42.524;12.052;2022-07-23T01:57:31;96998.97;;;31.27;39.53
58367;BME280;57745;42.524;12.052;2022-07-23T01:59:57;96994.22;;;31.14;39.47
58367;BME280;57745;42.524;12.052;2022-07-23T02:02:22;97005.47;;;31.22;39.63
58367;BME280;57745;42.524;12.052;2022-07-23T02:04:48;96990.69;;;31.21;38.90
58367;BME280;57745;42.524;12.052;2022-07-23T02:07:13;96991.03;;;31.18;38.99
58367;BME280;57745;42.524;12.052;2022-07-23T02:09:39;96988.22;;;31.18;39.09
58367;BME280;57745;42.524;12.052;2022-07-23T02:12:06;96993.34;;;31.27;38.72
58367;BME280;57745;42.524;12.052;2022-07-23T02:14:32;96986.03;;;31.24;39.00
58367;BME280;57745;42.524;12.052;2022-07-23T02:16:57;96993.53;;;31.29;38.70
58367;BME280;57745;42.524;12.052;2022-07-23T02:19:23;96983.81;;;31.30;39.21
58367;BME280;57745;42.524;12.052;2022-07-23T02:21:48;96989.41;;;31.30;38.38
58367;BME280;57745;42.524;12.052;2022-07-23T02:24:14;96979.91;;;31.33;38.91
58367;BME280;57745;42.524;12.052;2022-07-23T02:26:40;96986.44;;;31.28;39.03
58367;BME280;57745;42.524;12.052;2022-07-23T02:29:06;96990.69;;;31.21;39.28
58367;BME280;57745;42.524;12.052;2022-07-23T02:31:33;96994.75;;;31.13;39.33
58367;BME280;57745;42.524;12.052;2022-07-23T02:33:59;96986.19;;;31.18;39.33
58367;BME280;57745;42.524;12.052;2022-07-23T02:36:25;96992.94;;;31.23;38.89
58367;BME280;57745;42.524;12.052;2022-07-23T02:38:51;96987.31;;;31.15;39.61
58367;BME280;57745;42.524;12.052;2022-07-23T02:41:16;96976.84;;;31.16;39.08
58367;BME280;57745;42.524;12.052;2022-07-23T02:43:42;96986.75;;;31.17;39.51
58367;BME280;57745;42.524;12.052;2022-07-23T02:46:07;96989.00;;;31.18;39.13
58367;BME280;57745;42.524;12.052;2022-07-23T02:48:33;96981.84;;;31.10;39.27
58367;BME280;57745;42.524;12.052;2022-07-23T02:50:58;96979.66;;;31.16;38.79
58367;BME280;57745;42.524;12.052;2022-07-23T02:53:24;96981.88;;;31.17;38.61
58367;BME280;57745;42.524;12.052;2022-07-23T02:55:50;96983.38;;;31.18;38.96
58367;BME280;57745;42.524;12.052;2022-07-23T02:58:15;96981.88;;;31.17;38.61
58367;BME280;57745;42.524;12.052;2022-07-23T03:00:41;96978.16;;;31.15;39.01
58367;BME280;57745;42.524;12.052;2022-07-23T03:03:06;96986.75;;;31.17;38.57
58367;BME280;57745;42.524;12.052;2022-07-23T03:05:33;96981.13;;;31.17;38.53
58367;BME280;57745;42.524;12.052;2022-07-23T03:07:58;96982.25;;;31.14;38.62
58367;BME280;57745;42.524;12.052;2022-07-23T03:10:24;96984.41;;;31.07;39.10
58367;BME280;57745;42.524;12.052;2022-07-23T03:12:49;96981.13;;;31.17;39.05
58367;BME280;57745;42.524;12.052;2022-07-23T03:15:15;96985.25;;;31.16;39.06
58367;BME280;57745;42.524;12.052;2022-07-23T03:17:40;96979.47;;;31.14;38.64
58367;BME280;57745;42.524;12.052;2022-07-23T03:20:07;96971.72;;;31.06;39.29
58367;BME280;57745;42.524;12.052;2022-07-23T03:22:32;96984.09;;;31.11;38.88
58367;BME280;57745;42.524;12.052;2022-07-23T03:24:58;96982.25;;;31.14;38.84
58367;BME280;57745;42.524;12.052;2022-07-23T03:27:24;96982.59;;;31.10;38.72
58367;BME280;57745;42.524;12.052;2022-07-23T03:29:52;96980.56;;;31.11;38.98
58367;BME280;57745;42.524;12.052;2022-07-23T03:32:18;96984.09;;;31.11;38.84
58367;BME280;57745;42.524;12.052;2022-07-23T03:34:43;96981.84;;;31.10;38.50
58367;BME280;57745;42.524;12.052;2022-07-23T03:37:09;96990.03;;;31.07;39.14
58367;BME280;57745;42.524;12.052;2022-07-23T03:39:35;96992.81;;;31.07;38.52
58367;BME280;57745;42.524;12.052;2022-07-23T03:42:01;96989.91;;;31.13;38.80
58367;BME280;57745;42.524;12.052;2022-07-23T03:44:26;96986.91;;;31.11;38.36
58367;BME280;57745;42.524;12.052;2022-07-23T03:46:52;96991.53;;;31.08;38.87
58367;BME280;57745;42.524;12.052;2022-07-23T03:49:17;96986.28;;;31.05;38.34
58367;BME280;57745;42.524;12.052;2022-07-23T03:51:43;96988.31;;;31.04;38.64
58367;BME280;57745;42.524;12.052;2022-07-23T03:54:08;96993.00;;;31.02;38.55
58367;BME280;57745;42.524;12.052;2022-07-23T03:56:34;96999.34;;;31.02;38.93
58367;BME280;57745;42.524;12.052;2022-07-23T03:58:59;96995.22;;;31.03;38.38
58367;BME280;57745;42.524;12.052;2022-07-23T04:01:25;96989.81;;;31.05;38.80
58367;BME280;57745;42.524;12.052;2022-07-23T04:03:50;96989.44;;;31.01;38.26
58367;BME280;57745;42.524;12.052;2022-07-23T04:06:16;96994.09;;;30.99;38.74
58367;BME280;57745;42.524;12.052;2022-07-23T04:08:41;96988.16;;;31.02;38.19
58367;BME280;57745;42.524;12.052;2022-07-23T04:11:07;97003.03;;;30.97;38.85
58367;BME280;57745;42.524;12.052;2022-07-23T04:13:32;96999.69;;;30.99;38.59
58367;BME280;57745;42.524;12.052;2022-07-23T04:15:58;96998.94;;;30.98;38.70
58367;BME280;57745;42.524;12.052;2022-07-23T04:18:24;97001.75;;;30.98;38.28
58367;BME280;57745;42.524;12.052;2022-07-23T04:20:52;97000.03;;;30.95;38.79
58367;BME280;57745;42.524;12.052;2022-07-23T04:23:17;96998.19;;;30.98;38.60
58367;BME280;57745;42.524;12.052;2022-07-23T04:25:43;97001.94;;;31.00;37.99
58367;BME280;57745;42.524;12.052;2022-07-23T04:28:09;97000.03;;;30.95;38.18
58367;BME280;57745;42.524;12.052;2022-07-23T04:30:34;97008.22;;;30.93;38.13
58367;BME280;57745;42.524;12.052;2022-07-23T04:33:00;97001.53;;;30.96;38.16
58367;BME280;57745;42.524;12.052;2022-07-23T04:35:25;96998.53;;;30.94;38.12
58367;BME280;57745;42.524;12.052;2022-07-23T04:37:51;96996.28;;;30.93;38.46
58367;BME280;57745;42.524;12.052;2022-07-23T04:40:17;96996.66;;;30.89;38.78
58367;BME280;57745;42.524;12.052;2022-07-23T04:42:42;96994.59;;;30.90;38.70
58367;BME280;57745;42.524;12.052;2022-07-23T04:45:08;96997.22;;;30.95;38.34
58367;BME280;57745;42.524;12.052;2022-07-23T04:47:34;96995.53;;;30.92;38.66
58367;BME280;57745;42.524;12.052;2022-07-23T04:49:59;96999.63;;;30.91;38.77
58367;BME280;57745;42.524;12.052;2022-07-23T04:52:25;97002.44;;;30.91;38.36
58367;BME280;57745;42.524;12.052;2022-07-23T04:54:50;97002.25;;;30.89;38.63
58367;BME280;57745;42.524;12.052;2022-07-23T04:57:16;96996.66;;;30.89;38.58
58367;BME280;57745;42.524;12.052;2022-07-23T04:59:41;97003.34;;;30.86;38.69
58367;BME280;57745;42.524;12.052;2022-07-23T05:02:07;97003.75;;;30.90;38.98
58367;BME280;57745;42.524;12.052;2022-07-23T05:04:32;97009.91;;;30.89;38.67
58367;BME280;57745;42.524;12.052;2022-07-23T05:06:58;97012.16;;;30.90;39.02
58367;BME280;57745;42.524;12.052;2022-07-23T05:09:24;97011.56;;;30.92;39.11
58367;BME280;57745;42.524;12.052;2022-07-23T05:11:50;97011.00;;;30.86;39.21
58367;BME280;57745;42.524;12.052;2022-07-23T05:14:15;97013.78;;;30.86;39.40
58367;BME280;57745;42.524;12.052;2022-07-23T05:16:44;97012.69;;;30.89;38.88
58367;BME280;57745;42.524;12.052;2022-07-23T05:19:09;97008.59;;;30.90;39.40
58367;BME280;57745;42.524;12.052;2022-07-23T05:21:35;97015.50;;;30.89;39.40
58367;BME280;57745;42.524;12.052;2022-07-23T05:24:00;97017.56;;;30.88;39.67
58367;BME280;57745;42.524;12.052;2022-07-23T05:26:26;97027.25;;;30.87;39.60
58367;BME280;57745;42.524;12.052;2022-07-23T05:28:51;97022.41;;;30.88;39.62
58367;BME280;57745;42.524;12.052;2022-07-23T05:31:17;97022.03;;;30.91;39.33
58367;BME280;57745;42.524;12.052;2022-07-23T05:33:42;97027.25;;;30.87;39.53
58367;BME280;57745;42.524;12.052;2022-07-23T05:36:08;97027.47;;;30.89;39.89
58367;BME280;57745;42.524;12.052;2022-07-23T05:38:34;97020.69;;;30.85;39.75
58367;BME280;57745;42.524;12.052;2022-07-23T05:41:00;97023.91;;;30.89;39.62
58367;BME280;57745;42.524;12.052;2022-07-23T05:43:26;97028.75;;;30.88;39.60
58367;BME280;57745;42.524;12.052;2022-07-23T05:45:52;97021.84;;;30.89;39.83
58367;BME280;57745;42.524;12.052;2022-07-23T05:48:18;97027.25;;;30.87;40.11
58367;BME280;57745;42.524;12.052;2022-07-23T05:50:43;97034.34;;;30.88;39.60
58367;BME280;57745;42.524;12.052;2022-07-23T05:53:09;97031.00;;;30.90;39.97
58367;BME280;57745;42.524;12.052;2022-07-23T05:55:34;97031.75;;;30.90;39.61
58367;BME280;57745;42.524;12.052;2022-07-23T05:58:00;97025.75;;;30.86;39.83
58367;BME280;57745;42.524;12.052;2022-07-23T06:00:26;97031.00;;;30.90;39.86
58367;BME280;57745;42.524;12.052;2022-07-23T06:02:52;97028.34;;;30.84;40.32
58367;BME280;57745;42.524;12.052;2022-07-23T06:05:18;97031.94;;;30.92;39.61
58367;BME280;57745;42.524;12.052;2022-07-23T06:07:44;97031.00;;;30.90;40.07
58367;BME280;57745;42.524;12.052;2022-07-23T06:10:10;97035.44;;;30.85;40.10
58367;BME280;57745;42.524;12.052;2022-07-23T06:12:35;97032.09;;;30.87;39.73
58367;BME280;57745;42.524;12.052;2022-07-23T06:15:01;97035.44;;;30.85;39.82
58367;BME280;57745;42.524;12.052;2022-07-23T06:17:27;97039.75;;;30.86;40.17
58367;BME280;57745;42.524;12.052;2022-07-23T06:19:53;97037.69;;;30.87;39.57
58367;BME280;57745;42.524;12.052;2022-07-23T06:22:19;97042.69;;;30.81;40.13
58367;BME280;57745;42.524;12.052;2022-07-23T06:24:45;97043.09;;;30.85;40.31
58367;BME280;57745;42.524;12.052;2022-07-23T06:27:10;97045.34;;;30.86;39.38
58367;BME280;57745;42.524;12.052;2022-07-23T06:29:36;97036.53;;;30.82;40.22
58367;BME280;57745;42.524;12.052;2022-07-23T06:32:01;97040.25;;;30.77;40.21
58367;BME280;57745;42.524;12.052;2022-07-23T06:34:27;97043.63;;;30.83;39.43
58367;BME280;57745;42.524;12.052;2022-07-23T06:36:52;97036.53;;;30.82;40.11
58367;BME280;57745;42.524;12.052;2022-07-23T06:39:18;97040.44;;;30.79;40.00
58367;BME280;57745;42.524;12.052;2022-07-23T06:41:43;97046.22;;;30.81;39.64
58367;BME280;57745;42.524;12.052;2022-07-23T06:44:09;97039.66;;;30.79;40.14
58367;BME280;57745;42.524;12.052;2022-07-23T06:46:35;97044.72;;;30.80;40.01
58367;BME280;57745;42.524;12.052;2022-07-23T06:49:00;97042.13;;;30.82;39.96
58367;BME280;57745;42.524;12.052;2022-07-23T06:51:26;97048.16;;;30.86;39.84
58367;BME280;57745;42.524;12.052;2022-07-23T06:53:51;97048.28;;;30.81;40.04
58367;BME280;57745;42.524;12.052;2022-07-23T06:56:16;97042.34;;;30.84;39.56
58367;BME280;57745;42.524;12.052;2022-07-23T06:58:42;97045.84;;;30.77;39.81
58367;BME280;57745;42.524;12.052;2022-07-23T07:01:08;97044.94;;;30.82;39.72
58367;BME280;57745;42.524;12.052;2022-07-23T07:03:33;97047.34;;;30.78;39.69
58367;BME280;57745;42.524;12.052;2022-07-23T07:05:59;97043.97;;;30.80;39.88
58367;BME280;57745;42.524;12.052;2022-07-23T07:08:24;97040.25;;;30.77;39.75
58367;BME280;57745;42.524;12.052;2022-07-23T07:10:50;97044.56;;;30.78;39.60
58367;BME280;57745;42.524;12.052;2022-07-23T07:13:15;97043.22;;;30.79;39.58
58367;BME280;57745;42.524;12.052;2022-07-23T07:15:41;97033.19;;;30.84;39.97
58367;BME280;57745;42.524;12.052;2022-07-23T07:18:07;97041.38;;;30.82;40.01
58367;BME280;57745;42.524;12.052;2022-07-23T07:20:32;97038.38;;;30.80;40.08
58367;BME280;57745;42.524;12.052;2022-07-23T07:22:58;97044.72;;;30.80;39.53
58367;BME280;57745;42.524;12.052;2022-07-23T07:25:23;97043.97;;;30.80;39.53
58367;BME280;57745;42.524;12.052;2022-07-23T07:27:49;97045.44;;;30.73;40.34
58367;BME280;57745;42.524;12.052;2022-07-23T07:30:14;97042.13;;;30.82;39.43
58367;BME280;57745;42.524;12.052;2022-07-23T07:32:40;97042.47;;;30.79;39.47
58367;BME280;57745;42.524;12.052;2022-07-23T07:35:06;97044.19;;;30.82;39.92
58367;BME280;57745;42.524;12.052;2022-07-23T07:37:32;97034.66;;;30.77;39.61
58367;BME280;57745;42.524;12.052;2022-07-23T07:40:01;97041.38;;;30.82;39.38
58367;BME280;57745;42.524;12.052;2022-07-23T07:42:26;97042.13;;;30.82;39.44
58367;BME280;57745;42.524;12.052;2022-07-23T07:44:52;97039.13;;;30.80;39.85
58367;BME280;57745;42.524;12.052;2022-07-23T07:47:18;97043.78;;;30.78;40.01
58367;BME280;57745;42.524;12.052;2022-07-23T07:49:43;97041.00;;;30.78;39.85
58367;BME280;57745;42.524;12.052;2022-07-23T07:52:09;97046.78;;;30.80;39.80
58367;BME280;57745;42.524;12.052;2022-07-23T07:54:35;97039.34;;;30.82;39.37
58367;BME280;57745;42.524;12.052;2022-07-23T07:57:01;97038.59;;;30.82;39.43
58367;BME280;57745;42.524;12.052;2022-07-23T07:59:27;97041.38;;;30.82;39.22
58367;BME280;57745;42.524;12.052;2022-07-23T08:01:52;97042.09;;;30.75;39.85
58367;BME280;57745;42.524;12.052;2022-07-23T08:04:17;97044.69;;;30.73;39.25
58367;BME280;57745;42.524;12.052;2022-07-23T08:06:43;97046.19;;;30.74;39.33
58367;BME280;57745;42.524;12.052;2022-07-23T08:09:09;97048.56;;;30.69;39.85
58367;BME280;57745;42.524;12.052;2022-07-23T08:11:34;97045.84;;;30.77;39.13
58367;BME280;57745;42.524;12.052;2022-07-23T08:14:00;97042.47;;;30.79;39.21
58367;BME280;57745;42.524;12.052;2022-07-23T08:16:25;97045.47;;;30.81;39.53
58367;BME280;57745;42.524;12.052;2022-07-23T08:18:51;97036.53;;;30.82;39.00
58367;BME280;57745;42.524;12.052;2022-07-23T08:21:16;97040.25;;;30.77;38.87
58367;BME280;57745;42.524;12.052;2022-07-23T08:23:42;97041.47;;;30.68;39.56
58367;BME280;57745;42.524;12.052;2022-07-23T08:26:08;97043.59;;;30.76;38.57
58367;BME280;57745;42.524;12.052;2022-07-23T08:28:34;97038.75;;;30.76;38.64
58367;BME280;57745;42.524;12.052;2022-07-23T08:30:59;97043.22;;;30.79;39.12
58367;BME280;57745;42.524;12.052;2022-07-23T08:33:25;97046.72;;;30.72;38.24
58367;BME280;57745;42.524;12.052;2022-07-23T08:35:51;97047.06;;;30.68;38.57
58367;BME280;57745;42.524;12.052;2022-07-23T08:38:20;97046.31;;;30.68;38.31
58367;BME280;57745;42.524;12.052;2022-07-23T08:40:47;97045.44;;;30.73;38.31
58367;BME280;57745;42.524;12.052;2022-07-23T08:43:20;97041.75;;;30.78;38.61
58367;BME280;57745;42.524;12.052;2022-07-23T08:45:50;97044.56;;;30.78;38.10
58367;BME280;57745;42.524;12.052;2022-07-23T08:48:21;97050.47;;;30.75;38.13
58367;BME280;57745;42.524;12.052;2022-07-23T08:50:54;97043.97;;;30.80;38.27
58367;BME280;57745;42.524;12.052;2022-07-23T08:53:21;97051.09;;;30.81;38.40
58367;BME280;57745;42.524;12.052;2022-07-23T08:55:56;97054.72;;;30.68;37.02
58367;BME280;57745;42.524;12.052;2022-07-23T08:58:24;97044.69;;;30.73;37.63
58367;BME280;57745;42.524;12.052;2022-07-23T09:00:50;97047.28;;;30.70;37.54
58367;BME280;57745;42.524;12.052;2022-07-23T09:03:19;97051.03;;;30.73;37.29
58367;BME280;57745;42.524;12.052;2022-07-23T09:05:46;97055.53;;;30.76;37.91
58367;BME280;57745;42.524;12.052;2022-07-23T09:08:14;97047.69;;;30.75;38.05
58367;BME280;57745;42.524;12.052;2022-07-23T09:10:51;97055.19;;;30.80;37.53
58367;BME280;57745;42.524;12.052;2022-07-23T09:15:54;97053.22;;;30.67;37.54
58367;BME280;57745;42.524;12.052;2022-07-23T09:18:43;97040.59;;;30.74;37.01
58367;BME280;57745;42.524;12.052;2022-07-23T09:21:11;97051.31;;;30.62;37.73
58367;BME280;57745;42.524;12.052;2022-07-23T09:23:42;97048.78;;;30.71;37.25
58367;BME280;57745;42.524;12.052;2022-07-23T09:31:18;97048.44;;;30.75;37.03
58367;BME280;57745;42.524;12.052;2022-07-23T09:33:43;97051.44;;;30.77;37.03
58367;BME280;57745;42.524;12.052;2022-07-23T09:36:09;97055.75;;;30.78;37.34
58367;BME280;57745;42.524;12.052;2022-07-23T09:38:48;97048.22;;;30.73;36.67
58367;BME280;57745;42.524;12.052;2022-07-23T09:41:14;97047.28;;;30.70;36.10
58367;BME280;57745;42.524;12.052;2022-07-23T09:43:39;97052.97;;;30.44;35.82
58367;BME280;57745;42.524;12.052;2022-07-23T09:48:44;97053.94;;;30.26;37.19
58367;BME280;57745;42.524;12.052;2022-07-23T09:51:09;97052.84;;;30.50;37.01
58367;BME280;57745;42.524;12.052;2022-07-23T09:53:35;97049.88;;;30.68;35.65
58367;BME280;57745;42.524;12.052;2022-07-23T09:56:00;97059.28;;;30.58;35.83
58367;BME280;57745;42.524;12.052;2022-07-23T09:58:27;97065.19;;;30.33;36.10
58367;BME280;57745;42.524;12.052;2022-07-23T10:00:53;97060.09;;;30.45;35.38
58367;BME280;57745;42.524;12.052;2022-07-23T10:03:20;97058.41;;;30.63;35.50
58367;BME280;57745;42.524;12.052;2022-07-23T10:05:46;97064.22;;;30.31;35.74
58367;BME280;57745;42.524;12.052;2022-07-23T10:08:12;97064.78;;;30.29;36.26
58367;BME280;57745;42.524;12.052;2022-07-23T10:10:41;97055.34;;;30.19;34.78
58367;BME280;57745;42.524;12.052;2022-07-23T10:13:08;97056.69;;;30.39;35.35
58367;BME280;57745;42.524;12.052;2022-07-23T10:15:51;97049.03;;;30.40;35.71
58367;BME280;57745;42.524;12.052;2022-07-23T10:18:17;97052.28;;;30.30;35.73
58367;BME280;57745;42.524;12.052;2022-07-23T10:20:44;97055.72;;;30.36;34.59
58367;BME280;57745;42.524;12.052;2022-07-23T10:26:03;97057.44;;;30.40;34.03
58367;BME280;57745;42.524;12.052;2022-07-23T10:34:44;97035.91;;;30.34;32.89
58367;BME280;57745;42.524;12.052;2022-07-23T10:37:14;97038.28;;;30.64;33.15
58367;BME280;57745;42.524;12.052;2022-07-23T10:39:45;97065.53;;;30.64;32.77
58367;BME280;57745;42.524;12.052;2022-07-23T10:42:15;97042.09;;;30.75;32.40
58367;BME280;57745;42.524;12.052;2022-07-23T10:44:46;97046.97;;;30.82;32.37
58367;BME280;57745;42.524;12.052;2022-07-23T10:47:13;97043.38;;;30.53;32.59
58367;BME280;57745;42.524;12.052;2022-07-23T10:55:53;97035.59;;;30.59;33.40
58367;BME280;57745;42.524;12.052;2022-07-23T10:58:21;97024.13;;;30.70;33.34
58367;BME280;57745;42.524;12.052;2022-07-23T11:00:50;97029.94;;;30.72;33.69
58367;BME280;57745;42.524;12.052;2022-07-23T11:03:29;97026.03;;;30.54;34.33
58367;BME280;57745;42.524;12.052;2022-07-23T11:05:57;97031.28;;;30.58;34.52
58367;BME280;57745;42.524;12.052;2022-07-23T11:08:23;97020.03;;;30.71;34.10
58367;BME280;57745;42.524;12.052;2022-07-23T11:31:58;97019.34;;;30.78;35.16
58367;BME280;57745;42.524;12.052;2022-07-23T11:36:57;97016.97;;;30.61;34.95
58367;BME280;57745;42.524;12.052;2022-07-23T11:39:25;97013.88;;;30.73;34.59
58367;BME280;57745;42.524;12.052;2022-07-23T11:41:52;97005.47;;;30.73;35.27
58367;BME280;57745;42.524;12.052;2022-07-23T11:44:28;97003.47;;;30.81;34.92
58367;BME280;57745;42.524;12.052;2022-07-23T11:49:21;97005.44;;;30.65;34.35
58367;BME280;57745;42.524;12.052;2022-07-23T11:51:47;97005.81;;;30.69;34.58
58367;BME280;57745;42.524;12.052;2022-07-23T11:54:12;96999.75;;;30.57;34.21
58367;BME280;57745;42.524;12.052;2022-07-23T11:56:55;96990.03;;;30.79;34.39
58367;BME280;57745;42.524;12.052;2022-07-23T11:59:21;96995.44;;;30.77;34.49
58367;BME280;57745;42.524;12.052;2022-07-23T12:02:00;96990.41;;;30.55;34.50
58367;BME280;57745;42.524;12.052;2022-07-23T12:04:46;97003.44;;;30.73;34.38
58367;BME280;57745;42.524;12.052;2022-07-23T12:07:33;96987.03;;;30.77;34.16
58367;BME280;57745;42.524;12.052;2022-07-23T12:10:04;96990.22;;;30.81;34.73
58367;BME280;57745;42.524;12.052;2022-07-23T12:12:38;96992.81;;;30.79;34.27
58367;BME280;57745;42.524;12.052;2022-07-23T12:15:05;96987.94;;;30.72;34.79
58367;BME280;57745;42.524;12.052;2022-07-23T12:17:34;96993.56;;;30.80;34.82
58367;BME280;57745;42.524;12.052;2022-07-23T12:20:01;96995.47;;;30.85;34.20
58367;BME280;57745;42.524;12.052;2022-07-23T12:22:38;97000.13;;;30.82;34.80
58367;BME280;57745;42.524;12.052;2022-07-23T12:25:14;96977.44;;;30.65;34.21
58367;BME280;57745;42.524;12.052;2022-07-23T12:27:40;96990.72;;;30.51;34.87
58367;BME280;57745;42.524;12.052;2022-07-23T12:32:50;96990.06;;;30.58;34.93
58367;BME280;57745;42.524;12.052;2022-07-23T12:35:17;96986.78;;;30.47;34.78
58367;BME280;57745;42.524;12.052;2022-07-23T12:37:44;96983.78;;;30.65;34.48
58367;BME280;57745;42.524;12.052;2022-07-23T12:40:26;96996.66;;;30.68;34.54
58367;BME280;57745;42.524;12.052;2022-07-23T12:43:02;96990.59;;;30.57;34.58
58367;BME280;57745;42.524;12.052;2022-07-23T12:45:41;96984.53;;;30.66;34.27
58367;BME280;57745;42.524;12.052;2022-07-23T12:48:07;96984.47;;;30.58;34.38
58367;BME280;57745;42.524;12.052;2022-07-23T12:50:55;96980.63;;;30.69;34.83
58367;BME280;57745;42.524;12.052;2022-07-23T12:56:18;96981.75;;;30.66;34.21
58367;BME280;57745;42.524;12.052;2022-07-23T12:58:45;96980.56;;;30.61;34.47
58367;BME280;57745;42.524;12.052;2022-07-23T13:04:02;96992.25;;;30.52;34.12
58367;BME280;57745;42.524;12.052;2022-07-23T13:06:30;96984.81;;;30.55;33.76
58367;BME280;57745;42.524;12.052;2022-07-23T13:08:56;96985.00;;;30.57;33.37
58367;BME280;57745;42.524;12.052;2022-07-23T13:11:22;96985.97;;;30.59;33.05
58367;BME280;57745;42.524;12.052;2022-07-23T13:13:49;96995.66;;;30.58;33.39
58367;BME280;57745;42.524;12.052;2022-07-23T13:16:14;96989.38;;;30.65;33.03
58367;BME280;57745;42.524;12.052;2022-07-23T13:18:40;96976.31;;;30.68;32.91
58367;BME280;57745;42.524;12.052;2022-07-23T13:21:05;96979.88;;;30.68;33.19
58367;BME280;57745;42.524;12.052;2022-07-23T13:23:31;96975.38;;;30.65;32.82
58367;BME280;57745;42.524;12.052;2022-07-23T13:25:56;96988.63;;;30.65;32.78
58367;BME280;57745;42.524;12.052;2022-07-23T13:28:22;96973.84;;;30.85;33.22
58367;BME280;57745;42.524;12.052;2022-07-23T13:30:50;96975.56;;;30.67;33.34
58367;BME280;57745;42.524;12.052;2022-07-23T13:33:17;96976.69;;;30.64;33.21
58367;BME280;57745;42.524;12.052;2022-07-23T13:35:43;96966.56;;;30.61;33.07
58367;BME280;57745;42.524;12.052;2022-07-23T13:38:09;96981.53;;;30.64;32.75
58367;BME280;57745;42.524;12.052;2022-07-23T13:40:39;96977.78;;;30.61;33.44
58367;BME280;57745;42.524;12.052;2022-07-23T13:43:08;96962.81;;;30.59;32.93
58367;BME280;57745;42.524;12.052;2022-07-23T13:45:34;96970.34;;;30.64;33.28
58367;BME280;57745;42.524;12.052;2022-07-23T13:48:00;96983.03;;;30.65;33.18